EGCKEGNR

Guest
Details From EGCK - Caernarfon
To EGNR - Hawarden
Flight Number -
Tags Routegen
Created
Modified
Stats Distance 49 nm / 91 km
Max Altitude 0 ft / 0 m
Waypoints 2
Social Downloads 4
Likes 0
Share VATSIM

Download

Looking for another format? Having issues loading an existing format? Contact us
Advertisement - Login to hide

Notes

None

Route

EGCK EGNR

ID Type Via Altitude Latitude Longitude Leg Dist Tot Dist Heading (true) Name
O EGCK APT - 0 ft / 0 m 53.09950˚ -4.34238˚ - 0 nm - Caernarfon
O EGNR APT - 0 ft / 0 m 53.17122˚ -2.98764˚ 49 nm 49 nm 84° / 85° -

Altitude Profile

Advertisement - Login to hide

EGCK

Details ICAO EGCK
Name Caernarfon
Region United Kingdom
Timezone Europe/London (UTC+0.0)
Stats Elevation 13 ft / 4 m (AMSL)
Location 53.103081° -4.338717°
Runways 2
Magnetic Variation 2.210° W

METAR

EGCK 151750Z AUTO 05002KT 9999 NCD 03/00 Q1011

Decode

TAF

Not found

Departure Runways

ID Width Length Bearing (true) Bearing (mag) Surface Threshold Offset Overrun Length
02 75 ft / 23 m 3,499 ft / 1,066 m 13.18° 15.39° Asphalt 253 ft / 77 m 3 ft / 1 m
08 75 ft / 23 m 2,995 ft / 913 m 70.77° 72.98° Asphalt 151 ft / 46 m 0 ft / 0 m
20 75 ft / 23 m 3,499 ft / 1,066 m 193.18° 195.39° Asphalt 0 ft / 0 m 0 ft / 0 m
26 75 ft / 23 m 2,995 ft / 913 m 250.78° 252.99° Asphalt 266 ft / 81 m 0 ft / 0 m

EGNR

Details ICAO EGNR (CEG)
Name Hawarden
Region United Kingdom
Timezone Europe/London (UTC+0.0)
Stats Elevation 45 ft / 14 m (AMSL)
Location 53.178130° -2.977664°
Runways 1
Magnetic Variation 1.699° W

METAR

EGNR 151750Z 32010KT 9999 FEW025 04/01 Q1010

Decode

TAF

Not found

Destination Runways

ID Width Length Bearing (true) Bearing (mag) Surface Threshold Offset Overrun Length
05 148 ft / 45 m 6,680 ft / 2,036 m 40.93° 42.63° Asphalt 984 ft / 300 m 0 ft / 0 m
23 148 ft / 45 m 6,680 ft / 2,036 m 220.94° 222.64° Asphalt 984 ft / 300 m 0 ft / 0 m

Approach Navaids

Runway Type Ident Frequency Range Bearing (true) Bearing (mag) Slope Elevation
05 Localiser IHWD 110.35 MHz 18 nm / 33 km 34.27° 35.97° - 45 ft / 14 m (AMSL)
05 Glidescope IHWD 110.35 MHz 10 nm / 19 km 40.94° 42.64° 3.50° 42 ft / 13 m (AMSL)
05 DME IHWD 110.35 MHz 18 nm / 33 km - - - 45 ft / 14 m (AMSL)
23 Localiser IHDN 110.35 MHz 18 nm / 33 km 220.89° 222.59° - 32 ft / 10 m (AMSL)
23 Glidescope IHDN 110.35 MHz 10 nm / 19 km 220.94° 222.64° 3.00° 17 ft / 5 m (AMSL)
23 DME IHDN 110.35 MHz 18 nm / 33 km - - - 17 ft / 5 m (AMSL)